Time;durP1;ratioP1;P1;durP2;ratioP2;P2;SDS_P1;SDS_P2;PMS_P1;PMS_P2;Temp;Humidity;BMP_temperature;BMP_pressure;BME280_temperature;BME280_humidity;BME280_pressure;Samples;Min_cycle;Max_cycle;Signal;HPM_P1;HPM_P2
2022/01/21 00:02:33;;;;;;;20.85;8.45;;;;;;;0.66;65.06;101306.03;10450655;28;20580;-66
2022/01/21 00:07:35;;;;;;;19.67;7.10;;;;;;;0.44;65.59;101315.41;10468688;28;20631;-67
2022/01/21 00:12:37;;;;;;;20.02;7.45;;;;;;;0.48;65.43;101327.44;10452865;28;20447;-67
2022/01/21 00:17:39;;;;;;;20.00;7.20;;;;;;;0.47;65.32;101329.16;10451763;28;20061;-67
2022/01/21 00:33:22;;;;;;;22.48;7.05;;;;;;;0.59;65.48;101341.19;10469148;28;20052;-67
2022/01/21 00:38:25;;;;;;;18.90;6.85;;;;;;;0.64;64.85;101352.38;10468446;28;20063;-66
2022/01/21 00:48:32;;;;;;;25.58;7.70;;;;;;;0.56;65.04;101350.63;10467788;28;20060;-66
2022/01/21 00:53:34;;;;;;;20.23;7.55;;;;;;;0.51;65.04;101356.63;10468476;28;20057;-66
2022/01/21 00:58:35;;;;;;;23.27;8.15;;;;;;;0.43;64.93;101360.00;10467223;28;20147;-66
2022/01/21 01:03:37;;;;;;;18.27;7.70;;;;;;;0.43;64.92;101366.03;10466359;28;20109;-66
2022/01/21 01:08:39;;;;;;;31.33;8.73;;;;;;;0.35;65.01;101377.13;10449862;28;20131;-66
2022/01/21 01:29:11;;;;;;;22.75;9.20;;;;;;;0.35;65.38;101359.13;10466494;28;20067;-66
2022/01/21 01:34:14;;;;;;;19.50;8.23;;;;;;;0.18;65.90;101356.47;10466928;28;21081;-67
2022/01/21 01:40:11;;;;;;;25.35;9.15;;;;;;;0.29;65.38;101361.66;10466086;28;20149;-66
2022/01/21 01:50:40;;;;;;;23.98;9.00;;;;;;;0.16;65.63;101380.47;10389236;28;20174;-67
2022/01/21 01:55:42;;;;;;;19.20;8.02;;;;;;;0.19;65.76;101383.91;10465916;28;20179;-66
2022/01/21 02:00:44;;;;;;;26.05;8.25;;;;;;;0.19;65.96;101385.63;10446972;28;20144;-66
2022/01/21 02:05:46;;;;;;;20.52;7.95;;;;;;;0.30;65.58;101389.13;10463826;28;20055;-66
2022/01/21 02:10:48;;;;;;;22.95;7.95;;;;;;;0.36;65.42;101389.16;10446625;28;20483;-67
2022/01/21 02:21:30;;;;;;;24.90;8.20;;;;;;;0.49;64.86;101388.34;10464639;28;20282;-67
2022/01/21 02:26:32;;;;;;;24.63;8.07;;;;;;;0.51;64.72;101382.34;10464383;28;20135;-67
2022/01/21 02:31:35;;;;;;;20.17;8.00;;;;;;;0.56;64.49;101384.94;10445441;28;20518;-66
2022/01/21 02:36:37;;;;;;;21.85;8.60;;;;;;;0.69;64.33;101386.69;10463017;28;20132;-66
2022/01/21 02:41:39;;;;;;;18.85;8.82;;;;;;;0.71;64.43;101387.56;10446709;28;20055;-66
2022/01/21 02:46:42;;;;;;;20.13;9.43;;;;;;;0.81;64.11;101375.59;10465076;28;20616;-66
2022/01/21 02:51:44;;;;;;;23.52;9.55;;;;;;;0.90;64.16;101371.31;10465705;28;20130;-67
2022/01/21 02:56:46;;;;;;;23.17;9.73;;;;;;;0.92;63.84;101367.03;10464579;28;20056;-66
2022/01/21 03:01:49;;;;;;;20.92;9.05;;;;;;;0.75;64.00;101371.28;10459678;28;20053;-66
2022/01/21 03:06:51;;;;;;;20.65;9.35;;;;;;;0.70;63.85;101385.00;10470355;28;20052;-67
2022/01/21 03:11:53;;;;;;;25.77;9.48;;;;;;;0.51;64.20;101378.91;10453422;28;20094;-67
2022/01/21 03:16:56;;;;;;;22.15;9.57;;;;;;;0.39;64.29;101372.00;10470952;28;20131;-66
2022/01/21 03:21:58;;;;;;;20.20;9.52;;;;;;;0.27;64.59;101377.09;10476482;28;20052;-66
2022/01/21 03:27:00;;;;;;;21.67;8.93;;;;;;;0.20;64.85;101389.94;10473329;28;20455;-67
2022/01/21 03:32:02;;;;;;;22.92;9.52;;;;;;;0.06;65.23;101396.69;10478903;28;20118;-67
2022/01/21 03:37:04;;;;;;;25.50;9.93;;;;;;;0.13;65.26;101416.47;10478177;28;20091;-67
2022/01/21 03:42:06;;;;;;;25.65;9.68;;;;;;;0.14;65.06;101416.47;10460963;28;20120;-67
2022/01/21 03:47:08;;;;;;;22.75;8.80;;;;;;;0.22;64.96;101413.97;10477820;28;20412;-67
2022/01/21 03:52:10;;;;;;;19.42;9.23;;;;;;;0.35;64.97;101424.31;10477570;28;20071;-67
2022/01/21 03:57:11;;;;;;;29.60;9.70;;;;;;;0.54;64.85;101418.38;10478611;28;20052;-66
2022/01/21 04:02:13;;;;;;;19.10;9.38;;;;;;;0.68;64.77;101426.19;10476612;28;20701;-66
2022/01/21 04:07:15;;;;;;;24.10;9.85;;;;;;;0.81;64.80;101425.38;10469857;28;20060;-67
2022/01/21 04:12:18;;;;;;;20.30;9.90;;;;;;;0.87;64.32;101430.53;10453399;28;20143;-67
2022/01/21 04:17:23;;;;;;;24.33;11.40;;;;;;;0.99;64.32;101428.00;10452649;28;20451;-66
2022/01/21 04:22:25;;;;;;;30.77;11.48;;;;;;;1.05;64.37;101424.59;10452585;28;20436;-66
2022/01/21 04:27:27;;;;;;;28.73;10.88;;;;;;;1.03;64.32;101423.72;10469700;28;20057;-67
2022/01/21 04:32:29;;;;;;;25.75;10.75;;;;;;;1.09;64.29;101421.16;10468256;28;20058;-66
2022/01/21 04:37:30;;;;;;;23.63;10.27;;;;;;;1.06;64.36;101432.31;10452207;28;20137;-66
2022/01/21 04:47:53;;;;;;;26.52;11.13;;;;;;;1.08;64.59;101433.19;10468830;28;20060;-66
2022/01/21 04:52:54;;;;;;;30.38;11.93;;;;;;;1.18;64.15;101441.78;10468624;28;20066;-66
2022/01/21 04:57:56;;;;;;;25.77;11.73;;;;;;;1.04;64.30;101441.75;10469123;28;20066;-65
2022/01/21 05:02:59;;;;;;;27.95;13.30;;;;;;;0.96;64.60;101450.31;10467947;28;20163;-65
2022/01/21 05:08:05;;;;;;;28.48;14.35;;;;;;;1.02;64.69;101445.19;10467304;28;20114;-65
2022/01/21 05:13:08;;;;;;;29.73;12.85;;;;;;;1.06;64.61;101445.19;10468042;28;20080;-65
2022/01/21 05:18:09;;;;;;;25.27;12.73;;;;;;;1.03;64.65;101444.34;10450381;28;20048;-65
2022/01/21 05:23:11;;;;;;;30.95;15.73;;;;;;;1.11;64.29;101460.69;10467491;28;20049;-65
2022/01/21 05:28:14;;;;;;;32.17;15.23;;;;;;;1.14;64.63;101456.38;10467454;28;20059;-65
2022/01/21 05:33:16;;;;;;;31.33;14.70;;;;;;;1.11;64.53;101463.25;10468253;28;20053;-65
2022/01/21 05:38:18;;;;;;;28.63;14.15;;;;;;;1.09;64.51;101455.53;10467876;28;20052;-65
2022/01/21 05:43:19;;;;;;;33.80;14.23;;;;;;;1.19;64.27;101441.81;10466603;28;20412;-65
2022/01/21 05:48:21;;;;;;;29.45;14.05;;;;;;;1.21;64.45;101462.44;10466829;28;20079;-65
2022/01/21 05:53:23;;;;;;;33.05;14.00;;;;;;;1.18;64.25;101458.13;10448942;28;20048;-65
2022/01/21 05:58:25;;;;;;;26.88;13.07;;;;;;;1.18;64.24;101450.38;10467060;28;20427;-65
2022/01/21 06:03:27;;;;;;;27.63;14.23;;;;;;;1.11;64.37;101456.41;10467233;28;20564;-65
2022/01/21 06:08:28;;;;;;;32.70;14.55;;;;;;;0.95;64.14;101454.59;10464336;28;20051;-65
2022/01/21 06:13:30;;;;;;;29.40;15.27;;;;;;;0.78;64.52;101458.84;10466311;28;20056;-65
2022/01/21 06:18:32;;;;;;;38.20;16.15;;;;;;;0.59;64.59;101444.16;10465581;28;20072;-65
2022/01/21 06:23:34;;;;;;;33.97;15.35;;;;;;;0.60;64.86;101455.31;10448051;28;20147;-65
2022/01/21 06:28:36;;;;;;;33.10;14.38;;;;;;;0.57;64.93;101471.59;10465143;28;20049;-65
2022/01/21 06:33:37;;;;;;;33.13;13.88;;;;;;;0.67;64.96;101478.53;10447371;28;20041;-65
2022/01/21 06:38:39;;;;;;;36.00;15.15;;;;;;;0.78;64.79;101482.03;10448009;28;20569;-65
2022/01/21 06:43:41;;;;;;;30.20;14.77;;;;;;;0.85;65.15;101486.31;10464336;28;20048;-65
2022/01/21 06:48:43;;;;;;;29.42;13.00;;;;;;;1.00;65.39;101485.53;10464301;28;20052;-64
2022/01/21 06:53:45;;;;;;;31.17;14.18;;;;;;;1.11;65.06;101492.47;10464534;28;20049;-62
2022/01/21 06:58:47;;;;;;;37.90;16.00;;;;;;;1.11;65.38;101497.63;10459610;28;20076;-62
2022/01/21 07:03:49;;;;;;;32.55;17.25;;;;;;;1.19;65.33;101495.06;10460074;28;20068;-62
2022/01/21 07:08:50;;;;;;;34.47;16.25;;;;;;;1.15;65.05;101491.63;10463539;28;20055;-62
2022/01/21 07:13:52;;;;;;;33.75;15.00;;;;;;;1.08;65.01;101481.25;10447101;28;20049;-62
2022/01/21 07:18:55;;;;;;;29.77;16.55;;;;;;;0.93;65.40;101494.94;10445477;28;20060;-63
2022/01/21 07:23:57;;;;;;;35.22;17.08;;;;;;;0.83;65.33;101508.63;10465770;28;20562;-62
2022/01/21 07:28:59;;;;;;;34.78;18.15;;;;;;;0.87;65.55;101505.22;10462771;28;20054;-62
2022/01/21 07:34:06;;;;;;;32.35;15.40;;;;;;;0.85;65.73;101517.22;10465426;28;20493;-62
2022/01/21 07:39:07;;;;;;;35.45;16.30;;;;;;;0.97;65.80;101525.00;10465650;28;20058;-63
2022/01/21 07:44:09;;;;;;;33.97;17.45;;;;;;;1.20;65.40;101532.84;10466539;28;20063;-62
2022/01/21 07:49:12;;;;;;;34.00;16.10;;;;;;;1.40;65.22;101527.78;10465979;28;20053;-62
2022/01/21 07:54:14;;;;;;;31.38;14.93;;;;;;;1.56;64.96;101532.09;10466760;28;20114;-62
2022/01/21 07:59:16;;;;;;;38.08;16.88;;;;;;;1.79;64.40;101531.28;10466123;28;20143;-63
2022/01/21 08:04:18;;;;;;;29.70;15.52;;;;;;;1.71;64.30;101517.50;10465900;28;20135;-63
2022/01/21 08:09:24;;;;;;;30.40;14.75;;;;;;;1.64;64.53;101507.19;10473064;28;20384;-62
2022/01/21 08:14:26;;;;;;;31.88;16.80;;;;;;;1.67;64.30;101499.44;10473482;28;20131;-62
2022/01/21 08:19:28;;;;;;;34.88;15.27;;;;;;;1.75;64.39;101510.63;10460674;28;20558;-62
2022/01/21 08:24:30;;;;;;;28.85;14.77;;;;;;;1.89;64.06;101525.28;10469113;28;20454;-63
2022/01/21 08:29:32;;;;;;;38.15;14.30;;;;;;;1.98;63.97;101521.84;10466999;28;20052;-63
2022/01/21 08:34:34;;;;;;;32.15;14.98;;;;;;;2.08;63.68;101524.44;10470234;28;20048;-63
2022/01/21 08:39:36;;;;;;;34.58;15.57;;;;;;;2.10;63.76;101527.00;10469705;28;20060;-63
2022/01/21 08:44:38;;;;;;;29.83;13.98;;;;;;;2.15;63.68;101526.13;10468472;28;20592;-63
2022/01/21 08:49:40;;;;;;;28.95;12.95;;;;;;;2.22;64.37;101538.19;10468740;28;20154;-62
2022/01/21 08:54:42;;;;;;;24.73;11.68;;;;;;;2.60;64.58;101535.53;10467440;28;20048;-62
2022/01/21 08:59:44;;;;;;;21.67;12.23;;;;;;;3.13;63.62;101532.81;10452147;28;20060;-62
2022/01/21 09:04:46;;;;;;;21.38;12.82;;;;;;;3.24;62.54;101535.34;10469252;28;20098;-62
2022/01/21 09:09:53;;;;;;;22.60;12.00;;;;;;;3.10;62.68;101530.25;10463513;28;20532;-64
2022/01/21 09:14:55;;;;;;;23.13;12.43;;;;;;;2.99;62.83;101535.44;10467619;28;20135;-61
2022/01/21 09:19:57;;;;;;;21.10;11.90;;;;;;;3.17;62.41;101537.13;10466942;28;20131;-64
2022/01/21 09:24:59;;;;;;;19.45;11.27;;;;;;;3.28;62.26;101547.41;10447883;28;20048;-63
2022/01/21 09:30:05;;;;;;;21.23;11.32;;;;;;;3.37;61.56;101547.38;10465378;28;20052;-63
2022/01/21 09:35:07;;;;;;;23.27;11.13;;;;;;;3.67;61.22;101540.31;10449455;28;20064;-63
2022/01/21 09:40:11;;;;;;;16.55;10.23;;;;;;;3.58;61.28;101539.47;10445560;28;20186;-63
2022/01/21 09:45:14;;;;;;;16.95;10.82;;;;;;;3.40;61.49;101531.81;10465982;28;20056;-63
2022/01/21 09:50:20;;;;;;;20.58;10.50;;;;;;;3.42;60.89;101537.84;10466086;28;20506;-63
2022/01/21 09:55:22;;;;;;;22.00;10.95;;;;;;;3.41;61.24;101538.72;10464420;28;20437;-63
2022/01/21 10:00:28;;;;;;;16.92;10.43;;;;;;;3.55;60.47;101552.44;10464607;28;20127;-63
2022/01/21 10:05:31;;;;;;;21.90;10.93;;;;;;;3.67;60.57;101552.38;10466813;28;20044;-65
2022/01/21 10:10:33;;;;;;;19.52;10.35;;;;;;;3.57;60.49;101561.06;10464988;28;20135;-62
2022/01/21 10:15:37;;;;;;;20.00;11.02;;;;;;;3.64;61.14;101558.41;10466097;28;20139;-64
2022/01/21 10:21:01;;;;;;;22.25;10.05;;;;;;;3.77;60.60;101556.63;10464402;28;20084;-64
2022/01/21 10:26:06;;;;;;;22.75;10.40;;;;;;;3.86;60.72;101556.63;10465394;28;20459;-63
2022/01/21 10:31:09;;;;;;;20.05;9.10;;;;;;;4.00;60.11;101551.31;10463726;28;20136;-65
2022/01/21 10:36:25;;;;;;;17.15;8.60;;;;;;;4.18;60.19;101562.41;10466471;28;20052;-66
2022/01/21 10:41:32;;;;;;;17.10;9.10;;;;;;;4.51;59.46;101556.94;10460828;28;20106;-63
2022/01/21 10:46:35;;;;;;;14.77;8.25;;;;;;;4.67;59.53;101550.75;10465384;28;20100;-63
2022/01/21 10:51:40;;;;;;;19.17;8.30;;;;;;;4.75;59.33;101561.03;10465055;28;20416;-63
2022/01/21 10:57:07;;;;;;;15.13;7.90;;;;;;;4.81;58.78;101554.91;10465469;28;20260;-64
2022/01/21 11:02:09;;;;;;;13.68;8.35;;;;;;;4.88;59.01;101554.00;10463119;28;20066;-64
2022/01/21 11:07:14;;;;;;;17.95;8.63;;;;;;;5.16;59.11;101547.59;10466426;28;20088;-65
2022/01/21 11:12:16;;;;;;;17.08;7.93;;;;;;;5.54;57.81;101541.06;10448344;28;20061;-64
2022/01/21 11:17:18;;;;;;;17.88;8.45;;;;;;;5.35;57.87;101536.97;10464946;28;20547;-65
2022/01/21 11:22:25;;;;;;;17.45;8.00;;;;;;;5.48;57.81;101524.69;10463851;28;20059;-65
2022/01/21 11:27:27;;;;;;;16.58;7.57;;;;;;;5.69;57.11;101528.72;10465199;28;20131;-65
2022/01/21 11:32:29;;;;;;;17.02;6.72;;;;;;;5.55;57.06;101527.19;10462153;28;20052;-65
2022/01/21 11:37:31;;;;;;;16.65;7.03;;;;;;;5.50;57.50;101534.19;10465575;28;20056;-64
2022/01/21 11:42:38;;;;;;;18.50;8.30;;;;;;;5.73;56.48;101526.09;10469579;28;20088;-64
2022/01/21 11:48:00;;;;;;;17.23;7.43;;;;;;;5.66;56.82;101524.44;10472053;28;20056;-64
2022/01/21 11:53:02;;;;;;;18.17;7.68;;;;;;;5.78;57.02;101524.25;10471825;28;20056;-64
2022/01/21 11:58:15;;;;;;;19.17;8.45;;;;;;;5.50;56.06;101517.75;10472099;28;20911;-63
2022/01/21 12:03:21;;;;;;;18.20;8.90;;;;;;;5.39;57.89;101498.91;10470903;28;20056;-64
2022/01/21 12:08:56;;;;;;;18.95;8.02;;;;;;;5.34;58.03;101496.34;10471693;28;20119;-64
2022/01/21 12:13:59;;;;;;;18.10;7.90;;;;;;;5.68;58.07;101506.25;10427631;28;20135;-64
2022/01/21 12:19:16;;;;;;;15.23;7.25;;;;;;;5.37;58.17;101495.47;10471359;28;20139;-63
2022/01/21 12:24:51;;;;;;;16.92;8.02;;;;;;;5.34;59.72;101506.72;10470684;28;20052;-63
2022/01/21 12:30:29;;;;;;;17.30;8.02;;;;;;;5.35;57.51;101500.66;10470278;28;20218;-64
2022/01/21 12:35:31;;;;;;;19.95;9.18;;;;;;;5.27;58.68;101504.22;10470294;28;20168;-64
2022/01/21 12:40:36;;;;;;;16.67;8.80;;;;;;;5.18;58.79;101500.03;10469432;28;20049;-64
2022/01/21 12:45:38;;;;;;;21.65;9.73;;;;;;;5.02;59.26;101495.06;10471034;28;20160;-64
2022/01/21 12:50:47;;;;;;;22.23;9.45;;;;;;;4.79;59.98;101510.00;10452563;28;20150;-64
2022/01/21 12:55:55;;;;;;;15.43;8.88;;;;;;;4.92;59.83;101504.69;10467235;28;20546;-64
2022/01/21 13:01:03;;;;;;;20.08;10.00;;;;;;;4.87;60.03;101503.88;10468822;28;20540;-64
2022/01/21 13:06:24;;;;;;;23.85;8.95;;;;;;;4.80;60.32;101502.22;10451122;28;20128;-64
2022/01/21 13:11:29;;;;;;;18.95;9.95;;;;;;;4.87;60.32;101503.00;10468140;28;20056;-64
2022/01/21 13:16:32;;;;;;;23.05;10.85;;;;;;;4.99;60.14;101502.84;10450105;28;20055;-63
2022/01/21 13:21:35;;;;;;;34.90;19.05;;;;;;;5.04;59.96;101499.34;10468829;28;20377;-64
2022/01/21 13:26:39;;;;;;;25.98;13.60;;;;;;;4.77;60.61;101491.88;10468262;28;20482;-64
2022/01/21 13:31:47;;;;;;;25.60;10.60;;;;;;;5.16;65.81;101491.41;10468857;28;20068;-64
2022/01/21 13:36:51;;;;;;;41.53;20.60;;;;;;;5.43;59.38;101485.84;10465905;28;20059;-61
2022/01/21 13:41:55;;;;;;;25.63;12.68;;;;;;;5.15;59.87;101478.44;10441543;28;20134;-60
2022/01/21 13:46:59;;;;;;;26.17;11.63;;;;;;;4.98;60.24;101472.63;10466355;28;20107;-61
2022/01/21 13:52:04;;;;;;;135.30;51.97;;;;;;;4.80;60.51;101470.28;10465519;28;20523;-61
2022/01/21 13:57:06;;;;;;;81.68;32.65;;;;;;;4.69;60.59;101468.66;10463512;28;20075;-61
2022/01/21 14:02:13;;;;;;;20.13;8.38;;;;;;;4.65;60.58;101464.38;10466392;28;20052;-60
2022/01/21 14:07:29;;;;;;;14.82;8.13;;;;;;;4.43;60.86;101468.06;10466611;28;20052;-60
2022/01/21 14:12:31;;;;;;;18.55;6.95;;;;;;;4.47;61.04;101450.78;10465594;28;20182;-60
2022/01/21 14:17:34;;;;;;;14.57;6.70;;;;;;;4.28;61.20;101454.41;10466009;28;20044;-60
2022/01/21 14:22:46;;;;;;;13.48;5.63;;;;;;;4.14;60.92;101457.16;10466892;28;20048;-60
2022/01/21 14:27:51;;;;;;;20.55;6.40;;;;;;;4.29;61.02;101462.16;10465715;28;20059;-61
2022/01/21 14:32:55;;;;;;;18.60;6.80;;;;;;;4.37;61.23;101452.59;10447978;28;20459;-60
2022/01/21 14:38:07;;;;;;;16.02;5.30;;;;;;;4.37;60.84;101457.75;10461939;28;20514;-61
2022/01/21 14:43:18;;;;;;;17.85;5.78;;;;;;;4.29;61.19;101454.41;10447706;28;20653;-60
2022/01/21 14:48:26;;;;;;;14.38;6.55;;;;;;;4.24;61.36;101461.38;10466416;28;20056;-60
2022/01/21 14:53:33;;;;;;;14.52;6.30;;;;;;;4.07;61.99;101465.00;10443371;28;20064;-61
2022/01/21 14:58:35;;;;;;;18.42;6.00;;;;;;;4.03;62.06;101468.47;10462853;28;20509;-61
2022/01/21 15:03:38;;;;;;;16.92;4.90;;;;;;;4.07;62.32;101458.06;10464439;28;20162;-61
2022/01/21 15:08:52;;;;;;;17.58;6.68;;;;;;;4.24;62.33;101453.59;10462443;28;20942;-61
2022/01/21 15:14:24;;;;;;;19.95;5.40;;;;;;;4.17;62.89;101445.91;10464643;28;20061;-62
2022/01/21 15:19:33;;;;;;;15.60;5.10;;;;;;;4.05;63.10;101446.03;10473589;28;20045;-60
2022/01/21 15:24:36;;;;;;;14.30;4.40;;;;;;;4.03;62.96;101445.19;10473869;28;20492;-64
2022/01/21 15:29:39;;;;;;;17.33;4.72;;;;;;;3.78;63.74;101442.75;10474167;28;20084;-64
2022/01/21 15:34:41;;;;;;;13.07;5.40;;;;;;;3.71;63.90;101443.69;10472592;28;20055;-64
2022/01/21 15:39:43;;;;;;;15.07;4.57;;;;;;;3.67;64.17;101438.53;10471906;28;20052;-63
2022/01/21 15:44:45;;;;;;;12.77;3.75;;;;;;;3.59;64.33;101436.03;10473197;28;20703;-63
2022/01/21 15:49:47;;;;;;;11.95;4.00;;;;;;;3.58;64.36;101434.28;10473147;28;20052;-64
2022/01/21 15:55:07;;;;;;;12.15;3.70;;;;;;;3.67;64.34;101429.06;10472284;28;20201;-63
2022/01/21 16:00:09;;;;;;;11.40;3.35;;;;;;;3.57;64.49;101436.91;10472035;28;20908;-63
2022/01/21 16:05:11;;;;;;;16.45;4.85;;;;;;;3.55;64.80;101431.75;10465870;28;20127;-64
2022/01/21 16:10:13;;;;;;;8.43;3.55;;;;;;;3.49;64.88;101434.38;10471206;28;20515;-64
2022/01/21 16:15:15;;;;;;;10.52;3.75;;;;;;;3.46;65.28;101436.97;10471021;28;20067;-63
2022/01/21 16:20:17;;;;;;;12.52;3.75;;;;;;;3.46;65.40;101436.09;10468112;28;20484;-64
2022/01/21 16:25:19;;;;;;;9.98;4.13;;;;;;;3.50;65.68;101440.38;10467020;28;20052;-64
2022/01/21 16:30:21;;;;;;;9.55;4.00;;;;;;;3.33;66.07;101435.34;10459744;28;20056;-63
2022/01/21 16:35:23;;;;;;;11.02;4.03;;;;;;;3.25;66.41;101431.94;10466327;28;20052;-63
2022/01/21 16:40:28;;;;;;;11.55;3.90;;;;;;;3.26;66.75;101422.44;10456789;28;20609;-64
2022/01/21 16:45:29;;;;;;;13.98;4.47;;;;;;;3.27;66.67;101421.59;10466074;28;20408;-64
2022/01/21 16:50:32;;;;;;;12.80;4.60;;;;;;;3.32;66.66;101423.28;10466321;28;20488;-63
2022/01/21 16:55:34;;;;;;;17.30;4.70;;;;;;;3.22;67.19;101428.50;10461520;28;20114;-64
2022/01/21 17:00:35;;;;;;;13.40;4.95;;;;;;;3.22;67.21;101421.63;10449424;28;20060;-63
2022/01/21 17:05:39;;;;;;;12.82;5.65;;;;;;;3.31;67.23;101421.56;10467591;28;20056;-63
2022/01/21 17:10:42;;;;;;;10.48;4.65;;;;;;;3.18;67.46;101419.91;10466850;28;20056;-63
2022/01/21 17:15:44;;;;;;;12.88;4.75;;;;;;;3.21;67.64;101427.66;10466548;28;20466;-63
2022/01/21 17:20:47;;;;;;;13.35;5.20;;;;;;;3.26;67.67;101425.03;10464237;28;20135;-63
2022/01/21 17:25:50;;;;;;;13.07;5.38;;;;;;;3.17;68.25;101423.38;10465534;28;20164;-64
2022/01/21 17:30:52;;;;;;;18.42;6.35;;;;;;;3.25;68.14;101431.94;10464689;28;20235;-63
2022/01/21 17:35:55;;;;;;;13.02;5.80;;;;;;;3.20;68.19;101428.53;10463172;28;20519;-63
2022/01/21 17:40:57;;;;;;;16.10;6.93;;;;;;;3.28;68.03;101436.22;10461985;28;20764;-63
2022/01/21 17:45:59;;;;;;;12.55;6.20;;;;;;;3.22;68.48;101441.44;10461573;28;20628;-66
2022/01/21 17:51:04;;;;;;;12.02;6.13;;;;;;;3.24;68.38;101444.88;10461403;28;20106;-66
2022/01/21 17:56:07;;;;;;;14.80;6.00;;;;;;;3.14;69.07;101438.03;10462522;28;20056;-66
2022/01/21 18:01:09;;;;;;;18.08;7.18;;;;;;;3.22;68.91;101444.00;10456253;28;20076;-66
2022/01/21 18:06:11;;;;;;;15.52;8.73;;;;;;;3.19;69.01;101446.63;10462866;28;20410;-66
2022/01/21 18:11:21;;;;;;;20.35;8.63;;;;;;;3.17;69.27;101449.25;10460510;28;20052;-66
2022/01/21 18:16:23;;;;;;;15.93;8.65;;;;;;;3.11;69.55;101451.00;10464108;28;20048;-67
2022/01/21 18:21:26;;;;;;;16.63;7.88;;;;;;;3.21;69.46;101443.19;10463141;28;20665;-66
2022/01/21 18:26:28;;;;;;;17.70;9.13;;;;;;;3.23;69.61;101443.16;10447593;28;20053;-67
2022/01/21 18:31:30;;;;;;;16.17;8.95;;;;;;;3.21;69.71;101439.72;10448015;28;21037;-66
2022/01/21 18:36:32;;;;;;;15.07;8.98;;;;;;;3.17;69.83;101444.06;10465902;28;20385;-67
2022/01/21 18:41:35;;;;;;;14.55;9.25;;;;;;;3.21;69.86;101437.16;10463504;28;20049;-67
2022/01/21 18:46:38;;;;;;;17.75;12.02;;;;;;;3.22;69.85;101428.50;10465682;28;20175;-67
2022/01/21 18:51:48;;;;;;;18.73;11.77;;;;;;;3.25;70.22;101436.25;10462915;28;20477;-66
2022/01/21 18:56:50;;;;;;;17.35;10.70;;;;;;;3.37;69.58;101434.47;10464556;28;20117;-67
2022/01/21 19:01:52;;;;;;;19.27;12.73;;;;;;;3.54;69.13;101444.66;10446093;28;20060;-67
2022/01/21 19:06:54;;;;;;;32.25;19.90;;;;;;;3.60;69.06;101457.59;10462356;28;20103;-67
2022/01/21 19:11:55;;;;;;;18.70;12.82;;;;;;;3.66;69.01;101460.97;10463799;28;20056;-66
2022/01/21 19:16:57;;;;;;;24.73;19.30;;;;;;;3.74;68.88;101460.91;10456821;28;20052;-67
2022/01/21 19:22:05;;;;;;;18.45;15.05;;;;;;;3.80;68.80;101459.13;10453585;28;20132;-67
2022/01/21 19:27:07;;;;;;;25.15;15.10;;;;;;;3.66;69.09;101457.53;10463639;28;20059;-67
2022/01/21 19:32:11;;;;;;;19.35;15.18;;;;;;;3.65;69.20;101448.03;10464156;28;20139;-66
2022/01/21 19:37:14;;;;;;;22.38;15.13;;;;;;;3.64;69.32;101451.50;10462085;28;20132;-67
2022/01/21 19:42:15;;;;;;;24.70;15.77;;;;;;;3.72;69.07;101449.72;10444263;28;20067;-67
2022/01/21 19:47:21;;;;;;;22.38;15.35;;;;;;;3.67;69.41;101444.59;10459173;28;20397;-66
2022/01/21 19:52:23;;;;;;;24.83;16.98;;;;;;;3.63;69.51;101457.53;10460112;28;20186;-66
2022/01/21 19:57:32;;;;;;;23.70;17.67;;;;;;;3.60;69.63;101462.75;10461906;28;20063;-67
2022/01/21 20:13:03;;;;;;;25.15;17.35;;;;;;;3.89;69.34;101458.22;10467442;28;20080;-67
2022/01/21 20:18:17;;;;;;;21.98;15.98;;;;;;;4.00;69.07;101465.91;10465770;28;20052;-67
2022/01/21 20:23:20;;;;;;;23.55;18.67;;;;;;;4.09;68.80;101460.66;10468786;28;20565;-68
2022/01/21 20:28:23;;;;;;;31.00;22.88;;;;;;;4.23;68.34;101464.81;10465143;28;20596;-68
2022/01/21 20:33:27;;;;;;;22.33;16.92;;;;;;;4.26;68.47;101461.34;10450863;28;20064;-68
2022/01/21 20:38:33;;;;;;;22.17;17.23;;;;;;;4.35;68.16;101456.91;10447638;28;20053;-68
2022/01/21 20:43:35;;;;;;;21.80;16.05;;;;;;;4.37;68.02;101442.22;10465860;28;20053;-67
2022/01/21 20:48:38;;;;;;;26.90;19.02;;;;;;;4.41;67.78;101441.31;10467395;28;20052;-67
2022/01/21 20:53:40;;;;;;;25.48;16.95;;;;;;;4.36;68.07;101439.66;10467620;28;20062;-67
2022/01/21 20:58:42;;;;;;;23.27;16.38;;;;;;;4.38;67.87;101428.41;10450499;28;20052;-68
2022/01/21 21:03:47;;;;;;;17.95;14.30;;;;;;;4.40;67.72;101426.66;10468125;28;20055;-67
2022/01/21 21:08:51;;;;;;;18.25;12.40;;;;;;;4.39;67.63;101430.13;10445187;28;20048;-67
2022/01/21 21:13:53;;;;;;;20.70;14.55;;;;;;;4.36;67.75;101422.41;10463648;28;20053;-67
2022/01/21 21:29:56;;;;;;;17.45;11.02;;;;;;;4.39;67.18;101417.16;10456959;28;20063;-68
2022/01/21 22:23:35;;;;;;;15.13;7.40;;;;;;;4.19;66.43;101416.53;10466530;28;20152;-69
2022/01/21 22:34:15;;;;;;;13.48;6.80;;;;;;;4.30;65.87;101408.66;10465961;28;20056;-69
2022/01/21 23:00:17;;;;;;;22.40;9.32;;;;;;;4.25;65.75;101406.09;10461968;28;20052;-69
2022/01/21 23:05:22;;;;;;;18.33;9.02;;;;;;;4.21;65.99;101417.34;10458344;28;20071;-69
2022/01/21 23:10:24;;;;;;;21.77;9.07;;;;;;;4.15;66.02;101417.44;10457711;28;20853;-69
2022/01/21 23:15:33;;;;;;;15.48;8.63;;;;;;;4.26;65.88;101420.78;10443161;28;20066;-69
2022/01/21 23:20:35;;;;;;;12.25;7.10;;;;;;;4.22;65.90;101416.50;10458747;28;20060;-69
2022/01/21 23:31:00;;;;;;;13.32;6.53;;;;;;;4.28;65.41;101421.63;10463122;28;20145;-69
2022/01/21 23:36:03;;;;;;;12.88;6.45;;;;;;;4.28;65.50;101419.03;10463514;28;20049;-70
2022/01/21 23:41:11;;;;;;;16.67;7.53;;;;;;;4.35;65.12;101431.03;10452848;28;20565;-69
2022/01/21 23:46:15;;;;;;;15.18;6.38;;;;;;;4.26;65.17;101423.38;10469919;28;20506;-69
2022/01/21 23:51:19;;;;;;;12.73;7.00;;;;;;;4.28;65.06;101424.22;10470996;28;20060;-69
2022/01/21 23:56:21;;;;;;;11.20;4.65;;;;;;;4.27;64.95;101426.81;10452857;28;20060;-68
